Time;durP1;ratioP1;P1;durP2;ratioP2;P2;SDS_P1;SDS_P2;PMS_P1;PMS_P2;Temp;Humidity;BMP_temperature;BMP_pressure;BME280_temperature;BME280_humidity;BME280_pressure;Samples;Min_cycle;Max_cycle;Signal;HPM_P1;HPM_P2
2022/07/27 00:04:12;;;;;;;2.40;2.20;;;22.10;99.90;;;;;;10623610;27;20189;-89
2022/07/27 00:09:17;;;;;;;2.60;2.35;;;22.10;99.90;;;;;;10605359;27;20241;-90
2022/07/27 00:14:19;;;;;;;2.90;2.70;;;22.10;99.90;;;;;;10588337;27;20253;-89
2022/07/27 00:19:22;;;;;;;2.28;2.08;;;22.00;99.90;;;;;;10605675;28;20261;-90
2022/07/27 00:24:25;;;;;;;2.35;2.17;;;22.00;99.90;;;;;;10605260;28;20184;-90
2022/07/27 00:29:28;;;;;;;3.38;1.95;;;22.10;99.90;;;;;;10623257;28;20244;-89
2022/07/27 00:34:30;;;;;;;2.33;2.13;;;22.10;99.90;;;;;;10624122;28;20572;-89
2022/07/27 00:39:33;;;;;;;2.78;2.30;;;22.10;99.90;;;;;;10623467;28;20212;-90
2022/07/27 00:44:35;;;;;;;2.22;2.03;;;22.10;99.90;;;;;;10623296;28;20257;-90
2022/07/27 00:49:38;;;;;;;2.13;1.90;;;22.10;99.90;;;;;;10604938;28;20204;-89
2022/07/27 00:54:41;;;;;;;2.35;2.15;;;22.10;99.90;;;;;;10623485;28;20200;-89
2022/07/27 00:59:44;;;;;;;2.53;2.33;;;22.10;99.90;;;;;;10587016;28;20273;-90
2022/07/27 01:04:47;;;;;;;2.30;2.10;;;22.10;99.90;;;;;;10587285;28;20249;-90
2022/07/27 01:09:56;;;;;;;2.45;2.25;;;22.10;99.90;;;;;;10604408;28;20729;-89
2022/07/27 01:14:59;;;;;;;2.42;2.22;;;22.20;99.90;;;;;;10604629;28;20265;-89
2022/07/27 01:20:04;;;;;;;2.50;2.30;;;22.10;99.90;;;;;;10628908;27;20265;-90
2022/07/27 01:25:07;;;;;;;2.20;2.00;;;22.10;99.90;;;;;;10630423;27;20229;-89
2022/07/27 01:30:26;;;;;;;2.13;2.00;;;22.10;99.90;;;;;;10611655;27;20563;-89
2022/07/27 01:35:29;;;;;;;2.15;1.92;;;22.10;99.90;;;;;;10629573;27;20226;-89
2022/07/27 01:40:32;;;;;;;2.05;1.85;;;22.10;99.90;;;;;;10611210;27;20196;-90
2022/07/27 01:45:35;;;;;;;3.22;2.42;;;22.10;99.90;;;;;;10629523;27;20192;-90
2022/07/27 01:50:38;;;;;;;2.20;2.00;;;22.00;99.90;;;;;;10610751;27;20204;-90
2022/07/27 01:55:40;;;;;;;2.42;2.25;;;22.00;99.90;;;;;;10610635;27;20249;-90
2022/07/27 02:00:43;;;;;;;2.35;2.15;;;22.00;99.90;;;;;;10628836;27;20253;-90
2022/07/27 02:05:46;;;;;;;2.47;2.28;;;22.00;99.90;;;;;;10609905;27;20575;-90
2022/07/27 02:16:09;;;;;;;2.50;2.30;;;22.10;99.90;;;;;;10609642;27;20253;-89
2022/07/27 02:21:18;;;;;;;2.60;2.40;;;22.00;99.90;;;;;;10608920;27;20578;-89
2022/07/27 02:26:20;;;;;;;2.05;1.95;;;22.00;99.90;;;;;;10608992;27;20200;-90
2022/07/27 02:31:24;;;;;;;2.60;2.40;;;22.10;99.90;;;;;;10626928;27;20663;-89
2022/07/27 02:36:29;;;;;;;3.20;2.30;;;22.00;99.90;;;;;;10609034;27;20620;-90
2022/07/27 02:41:32;;;;;;;2.17;2.08;;;22.00;99.90;;;;;;10608500;27;20582;-89
2022/07/27 02:46:34;;;;;;;2.08;1.98;;;22.00;99.90;;;;;;10608871;27;20196;-90
2022/07/27 02:51:37;;;;;;;2.22;2.03;;;22.00;99.90;;;;;;10608743;27;20196;-90
2022/07/27 02:56:42;;;;;;;2.25;2.08;;;22.00;99.90;;;;;;10607953;27;20289;-89
2022/07/27 03:01:45;;;;;;;2.15;2.05;;;22.10;99.90;;;;;;10591111;27;20253;-89
2022/07/27 03:06:48;;;;;;;2.00;1.90;;;22.10;99.90;;;;;;10608299;27;20238;-89
2022/07/27 03:11:50;;;;;;;2.45;2.03;;;22.00;99.90;;;;;;10626361;27;20192;-89
2022/07/27 03:16:52;;;;;;;2.35;2.15;;;22.10;99.90;;;;;;10590837;27;20269;-89
2022/07/27 03:21:55;;;;;;;2.10;1.90;;;22.10;99.90;;;;;;10625460;27;20242;-89
2022/07/27 03:26:57;;;;;;;2.17;1.98;;;22.00;99.90;;;;;;10625215;27;20555;-89
2022/07/27 03:32:00;;;;;;;3.47;2.30;;;22.00;99.90;;;;;;10625715;27;20224;-90
2022/07/27 03:37:02;;;;;;;2.20;2.00;;;22.10;99.90;;;;;;10625494;27;20253;-90
2022/07/27 03:42:05;;;;;;;2.20;2.03;;;22.10;99.90;;;;;;10589325;27;20201;-89
2022/07/27 03:47:07;;;;;;;1.90;1.80;;;22.10;99.90;;;;;;10624503;27;20196;-90
2022/07/27 03:52:10;;;;;;;2.20;2.00;;;22.10;99.90;;;;;;10605642;27;20620;-89
2022/07/27 03:57:18;;;;;;;2.42;2.13;;;22.10;99.90;;;;;;10607634;27;20216;-89
2022/07/27 04:02:21;;;;;;;2.20;2.08;;;22.10;99.90;;;;;;10605873;27;20605;-90
2022/07/27 04:07:23;;;;;;;2.33;2.13;;;22.10;99.90;;;;;;10605736;27;20204;-89
2022/07/27 04:12:26;;;;;;;2.00;1.90;;;22.10;99.90;;;;;;10605130;27;20229;-90
2022/07/27 04:17:29;;;;;;;1.75;1.65;;;22.10;99.90;;;;;;10605122;27;20640;-90
2022/07/27 04:22:52;;;;;;;1.98;1.80;;;22.10;99.90;;;;;;10608733;28;20246;-89
2022/07/27 04:27:55;;;;;;;2.78;2.58;;;22.10;99.90;;;;;;10623542;28;20196;-89
2022/07/27 04:32:58;;;;;;;2.53;1.92;;;22.20;99.90;;;;;;10606023;28;20261;-90
2022/07/27 04:38:00;;;;;;;1.90;1.70;;;22.20;99.90;;;;;;10604960;28;20257;-89
2022/07/27 04:43:04;;;;;;;1.88;1.77;;;22.10;99.90;;;;;;10623449;28;20188;-90
2022/07/27 04:48:09;;;;;;;2.22;2.10;;;22.20;99.90;;;;;;10623763;28;20200;-89
2022/07/27 04:53:13;;;;;;;1.90;1.75;;;22.30;99.90;;;;;;10626757;27;20192;-90
2022/07/27 04:58:16;;;;;;;1.73;1.63;;;22.30;99.90;;;;;;10612980;27;20583;-89
2022/07/27 05:03:18;;;;;;;2.05;1.73;;;22.40;99.90;;;;;;10612367;27;20196;-89
2022/07/27 05:08:21;;;;;;;2.90;2.40;;;22.40;99.90;;;;;;10630817;27;20611;-90
2022/07/27 05:13:24;;;;;;;1.70;1.60;;;22.40;99.90;;;;;;10631270;27;20193;-89
2022/07/27 05:18:26;;;;;;;1.95;1.83;;;22.20;99.90;;;;;;10630518;27;20624;-90
2022/07/27 05:23:29;;;;;;;2.22;1.70;;;22.40;99.90;;;;;;10630785;27;20201;-89
2022/07/27 05:28:31;;;;;;;3.28;1.80;;;22.20;99.90;;;;;;10612098;27;20188;-89
2022/07/27 05:33:34;;;;;;;4.85;1.88;;;22.20;99.90;;;;;;10612457;27;20660;-89
2022/07/27 05:38:38;;;;;;;3.05;1.60;;;22.10;99.90;;;;;;10594783;27;20253;-89
2022/07/27 05:43:40;;;;;;;1.55;1.45;;;22.30;99.90;;;;;;10611483;27;20246;-89
2022/07/27 05:48:43;;;;;;;2.28;2.00;;;22.10;99.90;;;;;;10629510;27;20192;-89
2022/07/27 05:53:46;;;;;;;2.50;2.30;;;22.20;99.90;;;;;;10611486;27;20196;-90
2022/07/27 05:58:48;;;;;;;6.75;1.73;;;21.90;99.90;;;;;;10628997;27;20574;-90
2022/07/27 06:03:50;;;;;;;4.97;1.58;;;22.00;99.90;;;;;;10609958;27;20233;-90
2022/07/27 06:08:54;;;;;;;4.93;1.13;;;21.60;99.90;;;;;;10610656;27;20196;-90
2022/07/27 06:13:56;;;;;;;3.03;1.60;;;21.90;99.90;;;;;;10610750;27;20196;-89
2022/07/27 06:18:59;;;;;;;2.38;1.88;;;22.00;99.90;;;;;;10610320;27;20265;-90
2022/07/27 06:24:01;;;;;;;1.80;1.70;;;22.10;99.90;;;;;;10609266;27;20209;-88
2022/07/27 06:29:04;;;;;;;1.73;1.63;;;22.10;99.90;;;;;;10627775;27;20192;-89
2022/07/27 06:34:12;;;;;;;1.63;1.50;;;22.20;99.90;;;;;;10593738;27;20638;-89
2022/07/27 06:39:16;;;;;;;3.80;1.88;;;22.10;99.90;;;;;;10608536;27;20756;-90
2022/07/27 06:44:18;;;;;;;2.33;1.60;;;21.80;99.90;;;;;;10609065;27;20188;-89
2022/07/27 06:49:20;;;;;;;2.83;1.52;;;22.00;99.90;;;;;;10608008;27;20204;-90
2022/07/27 06:54:23;;;;;;;2.65;1.65;;;21.80;99.90;;;;;;10627182;27;20196;-89
2022/07/27 06:59:26;;;;;;;8.48;2.03;;;21.70;99.90;;;;;;10608281;27;20216;-89
2022/07/27 07:04:44;;;;;;;4.75;1.73;;;21.40;99.90;;;;;;10626406;27;20188;-89
2022/07/27 07:09:49;;;;;;;7.50;1.77;;;21.60;99.90;;;;;;10625945;27;20238;-89
2022/07/27 07:14:51;;;;;;;1.90;1.52;;;22.00;99.90;;;;;;10625329;27;20578;-89
2022/07/27 07:19:54;;;;;;;2.92;1.58;;;21.90;99.90;;;;;;10625487;27;20211;-90
2022/07/27 07:24:56;;;;;;;4.55;1.60;;;21.80;99.90;;;;;;10625345;27;20226;-89
2022/07/27 07:30:04;;;;;;;6.55;1.30;;;22.10;99.90;;;;;;10625009;27;20256;-89
2022/07/27 07:35:08;;;;;;;3.08;1.40;;;22.00;99.90;;;;;;10589651;27;20322;-90
2022/07/27 07:40:10;;;;;;;2.78;1.50;;;21.90;99.90;;;;;;10624861;27;20260;-89
2022/07/27 07:45:36;;;;;;;3.75;1.42;;;21.90;99.90;;;;;;10606184;27;20252;-89
2022/07/27 07:50:52;;;;;;;4.90;1.58;;;22.00;99.90;;;;;;10624416;27;20249;-89
2022/07/27 07:55:55;;;;;;;1.63;1.52;;;21.80;99.90;;;;;;10605425;27;20566;-90
2022/07/27 08:00:58;;;;;;;5.18;1.27;;;22.10;99.90;;;;;;10605766;27;20228;-89
2022/07/27 08:06:00;;;;;;;6.65;1.38;;;22.20;99.90;;;;;;10624160;27;20218;-90
2022/07/27 08:11:04;;;;;;;4.57;2.05;;;21.70;99.90;;;;;;10606172;27;20241;-89
2022/07/27 08:16:06;;;;;;;1.98;1.63;;;20.90;99.90;;;;;;10624195;27;20606;-89
2022/07/27 08:21:09;;;;;;;4.78;1.58;;;21.60;99.90;;;;;;10623494;27;20224;-90
2022/07/27 08:26:12;;;;;;;3.53;1.38;;;22.00;99.90;;;;;;10624175;27;20256;-89
2022/07/27 08:31:15;;;;;;;2.63;1.52;;;21.60;99.90;;;;;;10632636;27;20269;-89
2022/07/27 08:36:27;;;;;;;6.60;1.23;;;21.40;99.90;;;;;;10632755;27;20200;-89
2022/07/27 08:41:30;;;;;;;3.20;1.30;;;21.60;99.90;;;;;;10631777;27;20269;-90
2022/07/27 08:46:35;;;;;;;1.58;1.42;;;22.10;99.90;;;;;;10613666;27;20245;-89
2022/07/27 08:51:38;;;;;;;1.33;0.73;;;22.30;99.90;;;;;;10612554;27;20212;-89
2022/07/27 08:56:45;;;;;;;3.90;1.02;;;21.90;99.70;;;;;;10613151;27;20208;-90
2022/07/27 09:01:47;;;;;;;3.45;1.05;;;22.10;99.90;;;;;;10612559;27;20224;-89
2022/07/27 09:06:50;;;;;;;2.10;1.38;;;22.00;99.90;;;;;;10630874;27;20226;-89
2022/07/27 09:12:07;;;;;;;2.50;1.85;;;21.60;99.90;;;;;;10615135;27;20197;-88
2022/07/27 09:17:22;;;;;;;5.20;1.25;;;22.20;99.90;;;;;;10612791;27;20567;-89
2022/07/27 09:22:53;;;;;;;2.35;1.48;;;22.10;99.90;;;;;;10632147;27;20197;-89
2022/07/27 09:27:58;;;;;;;6.03;1.00;;;22.20;99.90;;;;;;10630776;27;20205;-89
2022/07/27 09:33:03;;;;;;;2.08;0.70;;;22.10;99.90;;;;;;10611442;27;20273;-89
2022/07/27 09:38:16;;;;;;;1.52;1.35;;;22.30;99.90;;;;;;10593504;27;20566;-89
2022/07/27 09:43:18;;;;;;;4.68;1.00;;;22.40;99.90;;;;;;10611640;27;20193;-89
2022/07/27 09:48:41;;;;;;;2.42;1.33;;;22.30;99.90;;;;;;10614110;27;20196;-89
2022/07/27 09:53:44;;;;;;;1.85;1.35;;;21.70;98.50;;;;;;10610829;27;20197;-89
2022/07/27 09:58:52;;;;;;;1.35;1.25;;;21.90;99.90;;;;;;10628801;27;20208;-89
2022/07/27 10:03:57;;;;;;;3.22;0.70;;;22.00;99.90;;;;;;10611182;27;20192;-89
2022/07/27 10:09:00;;;;;;;3.63;0.60;;;21.40;99.90;;;;;;10610078;27;20204;-89
2022/07/27 10:14:03;;;;;;;1.27;1.10;;;21.40;99.00;;;;;;10610081;27;20193;-89
2022/07/27 10:19:18;;;;;;;3.85;1.02;;;21.90;99.90;;;;;;10609682;27;20220;-89
2022/07/27 10:24:28;;;;;;;2.45;1.30;;;21.90;97.40;;;;;;10627624;27;20191;-90
2022/07/27 10:29:30;;;;;;;2.05;0.95;;;21.90;99.90;;;;;;10608847;27;20229;-89
2022/07/27 10:34:36;;;;;;;3.50;1.35;;;22.30;99.90;;;;;;10628518;27;20224;-89
2022/07/27 10:39:44;;;;;;;3.60;1.27;;;22.10;97.10;;;;;;10627115;27;20618;-90
2022/07/27 10:44:55;;;;;;;1.70;1.52;;;21.90;96.10;;;;;;10626754;27;20192;-89
2022/07/27 10:50:15;;;;;;;1.20;1.02;;;22.20;99.90;;;;;;10607459;27;20546;-89
2022/07/27 10:55:30;;;;;;;7.10;0.93;;;22.20;99.90;;;;;;10608703;27;20191;-90
2022/07/27 11:00:47;;;;;;;2.58;1.08;;;22.00;99.90;;;;;;10626333;27;20216;-89
2022/07/27 11:06:01;;;;;;;2.80;1.50;;;22.10;97.10;;;;;;10626251;27;20196;-90
2022/07/27 11:11:25;;;;;;;1.52;1.30;;;22.20;99.90;;;;;;10593097;27;20208;-89
2022/07/27 11:16:29;;;;;;;3.53;1.10;;;22.30;99.90;;;;;;10626372;27;20196;-89
2022/07/27 11:21:38;;;;;;;1.63;0.82;;;22.10;99.90;;;;;;10606813;27;20219;-90
2022/07/27 11:26:49;;;;;;;2.38;1.75;;;22.20;99.90;;;;;;10607493;27;20192;-89
2022/07/27 11:31:54;;;;;;;2.42;1.65;;;22.30;99.90;;;;;;10625302;27;20633;-89
2022/07/27 11:37:04;;;;;;;3.40;0.98;;;22.30;99.90;;;;;;10624979;27;20564;-89
2022/07/27 11:42:07;;;;;;;3.47;1.25;;;22.10;99.90;;;;;;10606815;27;20238;-90
2022/07/27 11:47:18;;;;;;;3.42;1.17;;;22.20;99.90;;;;;;10589490;27;20751;-89
2022/07/27 11:52:22;;;;;;;1.38;1.20;;;22.40;99.90;;;;;;10606512;27;20200;-89
2022/07/27 11:57:31;;;;;;;1.50;0.90;;;22.40;98.90;;;;;;10605625;27;20196;-88
2022/07/27 12:02:34;;;;;;;1.27;0.82;;;22.40;99.90;;;;;;10624012;27;20220;-88
2022/07/27 12:07:37;;;;;;;5.75;1.02;;;22.40;99.90;;;;;;10606106;27;20241;-89
2022/07/27 12:12:39;;;;;;;1.00;0.90;;;22.20;99.90;;;;;;10605018;27;20204;-89
2022/07/27 12:17:43;;;;;;;2.00;0.93;;;22.20;99.90;;;;;;10624019;27;20200;-88
2022/07/27 12:22:51;;;;;;;2.55;1.02;;;22.10;98.50;;;;;;10623319;27;20208;-89
2022/07/27 12:28:03;;;;;;;10.57;1.15;;;22.20;99.90;;;;;;10605028;28;20606;-89
2022/07/27 12:33:23;;;;;;;1.63;1.00;;;22.30;93.90;;;;;;10605576;28;20212;-89
2022/07/27 12:38:42;;;;;;;1.67;0.73;;;22.60;98.40;;;;;;10623599;28;20216;-89
2022/07/27 12:44:02;;;;;;;1.45;1.00;;;22.40;98.50;;;;;;10623564;28;20196;-89
2022/07/27 12:49:14;;;;;;;2.90;0.98;;;22.40;99.90;;;;;;10605381;28;20196;-88
2022/07/27 12:54:18;;;;;;;4.10;1.55;;;22.30;96.10;;;;;;10587665;28;20204;-89
2022/07/27 12:59:22;;;;;;;3.13;1.08;;;22.20;99.90;;;;;;10604144;28;20584;-89
2022/07/27 13:04:24;;;;;;;4.05;0.82;;;22.20;95.30;;;;;;10623359;28;20188;-89
2022/07/27 13:09:27;;;;;;;3.05;0.45;;;22.00;93.40;;;;;;10603791;28;20582;-89
2022/07/27 13:14:50;;;;;;;3.08;0.85;;;22.20;99.20;;;;;;10612492;27;20652;-89
2022/07/27 13:19:53;;;;;;;4.57;0.82;;;22.40;96.80;;;;;;10630522;27;20250;-89
2022/07/27 13:24:56;;;;;;;5.43;1.20;;;22.20;97.70;;;;;;10594838;27;20253;-89
2022/07/27 13:29:58;;;;;;;5.93;1.10;;;22.30;93.00;;;;;;10611502;27;20257;-88
2022/07/27 13:35:01;;;;;;;7.13;1.17;;;22.20;99.90;;;;;;10630021;27;20217;-89
2022/07/27 13:40:05;;;;;;;2.83;0.75;;;22.20;92.20;;;;;;10611273;27;20285;-89
2022/07/27 13:45:08;;;;;;;8.77;0.98;;;22.10;98.50;;;;;;10629592;27;20250;-88
2022/07/27 13:50:15;;;;;;;1.02;0.82;;;22.20;93.70;;;;;;10630612;27;20193;-89
2022/07/27 13:55:21;;;;;;;5.07;1.02;;;22.30;96.90;;;;;;10611472;27;20204;-88
2022/07/27 14:00:29;;;;;;;1.67;0.52;;;22.40;96.20;;;;;;10611725;27;20212;-87
2022/07/27 14:05:31;;;;;;;1.88;0.82;;;22.30;95.00;;;;;;10628500;27;20192;-88
2022/07/27 14:10:40;;;;;;;1.17;0.80;;;22.30;99.90;;;;;;10593023;27;20577;-89
2022/07/27 14:15:45;;;;;;;2.40;0.73;;;22.30;99.90;;;;;;10628204;27;20253;-88
2022/07/27 14:20:57;;;;;;;2.47;0.82;;;22.40;94.50;;;;;;10627797;27;20273;-89
2022/07/27 14:26:01;;;;;;;2.08;0.60;;;22.40;99.90;;;;;;10607526;27;20563;-89
2022/07/27 14:31:05;;;;;;;2.97;0.80;;;22.20;93.80;;;;;;10627539;27;20293;-89
2022/07/27 14:36:08;;;;;;;2.08;0.70;;;22.40;99.60;;;;;;10627443;27;20598;-89
2022/07/27 14:41:11;;;;;;;1.55;1.00;;;22.40;99.90;;;;;;10608159;27;20219;-89
2022/07/27 14:46:14;;;;;;;1.27;0.60;;;22.70;92.00;;;;;;10626898;27;20193;-89
2022/07/27 14:51:16;;;;;;;0.80;0.70;;;22.20;97.30;;;;;;10608868;27;20200;-88
2022/07/27 14:56:19;;;;;;;2.08;0.77;;;22.70;95.70;;;;;;10608988;27;20187;-89
2022/07/27 15:01:21;;;;;;;3.92;1.05;;;22.50;93.10;;;;;;10626449;27;20216;-89
2022/07/27 15:06:24;;;;;;;1.52;0.75;;;22.60;97.40;;;;;;10608047;27;20268;-88
2022/07/27 15:11:27;;;;;;;3.28;1.05;;;22.50;93.50;;;;;;10625869;27;20188;-88
2022/07/27 15:16:30;;;;;;;6.47;1.67;;;22.40;99.70;;;;;;10607277;27;20200;-89
2022/07/27 15:21:32;;;;;;;4.57;0.60;;;22.60;99.90;;;;;;10607316;27;20208;-88
2022/07/27 15:26:35;;;;;;;6.43;0.82;;;22.70;99.40;;;;;;10606246;27;20237;-89
2022/07/27 15:31:37;;;;;;;3.83;1.15;;;22.50;92.10;;;;;;10625522;27;20246;-89
2022/07/27 15:36:40;;;;;;;4.30;0.90;;;22.50;97.40;;;;;;10624419;27;20585;-89
2022/07/27 15:41:51;;;;;;;1.70;0.68;;;22.60;91.00;;;;;;10624793;27;20242;-88
2022/07/27 15:46:53;;;;;;;1.02;0.70;;;22.50;94.10;;;;;;10606039;27;20200;-89
2022/07/27 15:51:56;;;;;;;4.57;0.55;;;22.50;99.90;;;;;;10624887;27;20196;-89
2022/07/27 15:56:59;;;;;;;5.68;1.02;;;22.60;92.20;;;;;;10588633;27;20257;-89
2022/07/27 16:02:01;;;;;;;2.53;0.80;;;22.60;93.70;;;;;;10605070;27;20704;-89
2022/07/27 16:07:04;;;;;;;1.65;0.85;;;22.50;90.10;;;;;;10623909;27;20241;-88
2022/07/27 16:12:07;;;;;;;2.75;0.77;;;22.30;92.80;;;;;;10623799;27;20241;-88
2022/07/27 16:17:09;;;;;;;1.23;0.90;;;22.40;99.60;;;;;;10604817;27;20208;-88
2022/07/27 16:22:12;;;;;;;0.57;0.57;;;22.80;99.90;;;;;;10588860;27;20215;-87
2022/07/27 16:27:14;;;;;;;5.80;0.85;;;22.70;99.90;;;;;;10623494;27;20710;-89
2022/07/27 16:32:17;;;;;;;5.22;0.80;;;21.90;93.70;;;;;;10605284;28;20228;-88
2022/07/27 16:37:19;;;;;;;1.75;0.80;;;22.10;97.90;;;;;;10605203;28;20196;-89
2022/07/27 16:42:22;;;;;;;2.10;0.60;;;22.60;99.20;;;;;;10604277;28;20569;-88
2022/07/27 16:47:25;;;;;;;1.05;0.75;;;22.80;94.50;;;;;;10624400;27;20200;-88
2022/07/27 16:52:27;;;;;;;2.03;1.05;;;22.70;96.20;;;;;;10613349;27;20571;-88
2022/07/27 16:57:30;;;;;;;1.98;1.00;;;23.00;99.90;;;;;;10631341;27;20192;-88
2022/07/27 17:02:33;;;;;;;3.65;0.93;;;22.60;99.90;;;;;;10612884;27;20245;-89
2022/07/27 17:07:35;;;;;;;5.55;0.98;;;22.30;98.70;;;;;;10631241;27;20249;-88
2022/07/27 17:12:38;;;;;;;7.45;1.00;;;22.60;96.80;;;;;;10630707;27;20603;-88
2022/07/27 17:17:40;;;;;;;7.53;0.98;;;22.30;89.60;;;;;;10595329;27;20576;-88
2022/07/27 17:22:43;;;;;;;2.65;0.90;;;22.00;90.50;;;;;;10611886;27;20585;-88
2022/07/27 17:27:46;;;;;;;1.05;0.80;;;22.10;93.70;;;;;;10630138;27;20189;-88
2022/07/27 17:32:48;;;;;;;3.97;0.50;;;21.80;97.80;;;;;;10630119;27;20232;-88
2022/07/27 17:37:51;;;;;;;1.73;1.00;;;22.10;93.80;;;;;;10629908;27;20197;-88
2022/07/27 17:43:08;;;;;;;1.05;0.70;;;21.90;98.40;;;;;;10611120;27;20362;-88
2022/07/27 17:48:12;;;;;;;1.85;0.60;;;21.90;99.70;;;;;;10610508;27;20249;-89
2022/07/27 17:53:15;;;;;;;1.25;0.90;;;22.10;97.40;;;;;;10610937;27;20208;-89
2022/07/27 17:58:17;;;;;;;2.72;0.68;;;22.10;99.90;;;;;;10628607;27;20192;-89
2022/07/27 18:03:20;;;;;;;1.40;0.70;;;22.00;99.90;;;;;;10628581;27;20261;-88
2022/07/27 18:08:23;;;;;;;3.22;0.70;;;22.10;99.90;;;;;;10609508;27;20570;-89
2022/07/27 18:13:26;;;;;;;4.88;1.05;;;22.20;99.90;;;;;;10593349;27;20208;-88
2022/07/27 18:18:44;;;;;;;4.97;0.88;;;22.00;94.10;;;;;;10628367;27;20291;-88
2022/07/27 18:23:46;;;;;;;0.80;0.70;;;21.80;99.70;;;;;;10627807;27;20626;-88
2022/07/27 18:28:51;;;;;;;3.20;1.45;;;21.90;99.90;;;;;;10609386;27;20555;-88
2022/07/27 18:33:54;;;;;;;2.78;0.73;;;21.90;99.90;;;;;;10628008;27;20277;-88
2022/07/27 18:38:57;;;;;;;1.38;0.93;;;22.00;99.90;;;;;;10627048;27;20544;-88
2022/07/27 18:43:59;;;;;;;1.63;0.73;;;22.00;99.90;;;;;;10608588;27;20630;-88
2022/07/27 18:49:02;;;;;;;1.08;0.50;;;22.00;99.90;;;;;;10626758;27;20560;-88
2022/07/27 18:54:05;;;;;;;1.95;1.40;;;22.00;99.90;;;;;;10607863;27;20560;-88
2022/07/27 18:59:07;;;;;;;1.63;0.98;;;22.00;99.90;;;;;;10626362;27;20218;-88
2022/07/27 19:04:10;;;;;;;1.55;0.80;;;22.00;99.90;;;;;;10626059;27;20277;-88
2022/07/27 19:09:16;;;;;;;1.70;1.20;;;22.00;99.90;;;;;;10608219;27;20539;-88
2022/07/27 19:14:21;;;;;;;0.80;0.73;;;22.00;99.90;;;;;;10607159;27;20249;-88
2022/07/27 19:19:24;;;;;;;0.82;0.70;;;22.00;99.90;;;;;;10607325;27;20204;-88
2022/07/27 19:24:27;;;;;;;2.15;0.82;;;21.90;99.90;;;;;;10625615;27;20212;-88
2022/07/27 19:29:29;;;;;;;0.70;0.60;;;21.90;99.90;;;;;;10625721;27;20192;-88
2022/07/27 19:34:32;;;;;;;1.02;0.75;;;21.90;99.90;;;;;;10581147;28;20270;-88
2022/07/27 19:39:35;;;;;;;1.38;0.82;;;21.90;99.90;;;;;;10581664;28;20246;-88
2022/07/27 19:44:57;;;;;;;1.42;0.93;;;21.80;99.90;;;;;;10582695;28;20192;-88
2022/07/27 19:50:00;;;;;;;0.65;0.65;;;21.80;99.90;;;;;;10581253;28;20208;-88
2022/07/27 19:55:05;;;;;;;1.25;0.98;;;21.80;99.90;;;;;;10581759;28;20317;-87
2022/07/27 20:00:08;;;;;;;1.40;0.68;;;21.80;99.90;;;;;;10580577;28;20201;-88
2022/07/27 20:05:11;;;;;;;0.70;0.60;;;21.70;99.90;;;;;;10579817;28;20197;-88
2022/07/27 20:10:14;;;;;;;2.15;1.00;;;21.70;99.90;;;;;;10581213;28;20600;-88
2022/07/27 20:15:16;;;;;;;0.80;0.80;;;21.70;99.90;;;;;;10579769;28;20669;-88
2022/07/27 20:20:19;;;;;;;2.20;1.23;;;21.70;99.90;;;;;;10580257;28;20212;-88
2022/07/27 20:25:22;;;;;;;1.00;0.85;;;21.70;99.90;;;;;;10579452;28;20261;-88
2022/07/27 20:30:24;;;;;;;1.77;1.00;;;21.70;99.90;;;;;;10584021;28;20566;-88
2022/07/27 20:35:27;;;;;;;1.15;0.85;;;21.70;99.90;;;;;;10623196;28;20188;-88
2022/07/27 20:40:39;;;;;;;1.05;0.90;;;21.70;99.90;;;;;;10588998;28;20212;-88
2022/07/27 20:45:41;;;;;;;3.22;1.23;;;21.60;99.90;;;;;;10622922;28;20260;-88
2022/07/27 20:50:44;;;;;;;2.28;0.95;;;21.60;99.90;;;;;;10622896;28;20245;-88
2022/07/27 20:55:47;;;;;;;1.50;1.00;;;21.60;99.90;;;;;;10622904;28;20257;-88
2022/07/27 21:00:49;;;;;;;0.88;0.60;;;21.60;99.90;;;;;;10603765;28;20220;-88
2022/07/27 21:05:52;;;;;;;1.45;1.10;;;21.60;99.90;;;;;;10604453;28;20213;-88
2022/07/27 21:10:55;;;;;;;1.48;1.15;;;21.60;99.90;;;;;;10604483;28;20192;-88
2022/07/27 21:15:57;;;;;;;1.52;1.20;;;21.60;99.90;;;;;;10622603;28;20218;-87
2022/07/27 21:21:00;;;;;;;1.80;0.85;;;21.60;99.90;;;;;;10604267;28;20228;-88
2022/07/27 21:26:02;;;;;;;4.07;0.90;;;21.50;99.90;;;;;;10603674;28;20196;-88
2022/07/27 21:31:05;;;;;;;1.60;0.90;;;21.50;99.90;;;;;;10622164;28;20228;-88
2022/07/27 21:36:07;;;;;;;1.23;0.80;;;21.60;99.90;;;;;;10608954;27;20621;-88
2022/07/27 21:41:10;;;;;;;2.00;1.20;;;21.50;99.90;;;;;;10611505;27;20221;-88
2022/07/27 21:46:12;;;;;;;3.10;1.00;;;21.50;99.90;;;;;;10629511;27;20189;-88
2022/07/27 21:51:17;;;;;;;1.75;1.00;;;21.50;99.90;;;;;;10610306;27;20208;-88
2022/07/27 21:56:19;;;;;;;1.92;0.90;;;21.50;99.90;;;;;;10629114;27;20226;-88
2022/07/27 22:01:22;;;;;;;1.00;0.90;;;21.50;99.90;;;;;;10628797;27;20215;-88
2022/07/27 22:06:24;;;;;;;1.17;1.02;;;21.50;99.90;;;;;;10610750;27;20612;-88
2022/07/27 22:11:27;;;;;;;3.78;1.02;;;21.50;99.90;;;;;;10610987;27;20229;-88
2022/07/27 22:16:29;;;;;;;1.98;1.08;;;21.50;99.90;;;;;;10609452;27;20208;-88
2022/07/27 22:21:32;;;;;;;1.17;0.65;;;21.50;99.90;;;;;;10608896;27;20704;-88
2022/07/27 22:26:35;;;;;;;2.03;1.00;;;21.50;99.90;;;;;;10628342;27;20184;-88
2022/07/27 22:31:37;;;;;;;1.88;1.08;;;21.50;99.90;;;;;;10628073;27;20590;-88
2022/07/27 22:36:40;;;;;;;1.13;0.60;;;21.40;99.90;;;;;;10627313;27;20196;-88
2022/07/27 22:41:42;;;;;;;1.15;0.90;;;21.50;99.90;;;;;;10609043;27;20220;-88
2022/07/27 22:46:45;;;;;;;2.03;1.23;;;21.50;99.90;;;;;;10625836;27;20746;-87
2022/07/27 22:51:48;;;;;;;2.83;1.10;;;21.50;99.90;;;;;;10626748;27;20200;-88
2022/07/27 22:56:55;;;;;;;1.63;0.93;;;21.40;99.90;;;;;;10609235;27;20602;-88
2022/07/27 23:01:58;;;;;;;1.40;1.00;;;21.40;99.90;;;;;;10607526;27;20273;-88
2022/07/27 23:07:00;;;;;;;1.35;0.90;;;21.50;99.90;;;;;;10608425;27;20201;-88
2022/07/27 23:12:03;;;;;;;5.50;1.33;;;21.50;99.90;;;;;;10607355;27;20550;-88
2022/07/27 23:17:05;;;;;;;1.63;1.45;;;21.50;99.90;;;;;;10626411;27;20188;-88
2022/07/27 23:22:08;;;;;;;2.15;1.45;;;21.50;99.90;;;;;;10607586;27;20212;-88
2022/07/27 23:27:12;;;;;;;1.98;1.45;;;21.50;99.90;;;;;;10607051;27;20668;-87
2022/07/27 23:32:15;;;;;;;1.90;0.80;;;21.50;99.90;;;;;;10625515;27;20626;-88
2022/07/27 23:37:18;;;;;;;2.63;1.30;;;21.40;99.90;;;;;;10605971;27;20204;-87
2022/07/27 23:42:20;;;;;;;1.77;0.98;;;21.40;99.90;;;;;;10625326;27;20269;-88
2022/07/27 23:47:23;;;;;;;0.93;0.82;;;21.50;99.90;;;;;;10605868;27;20200;-88
2022/07/27 23:52:25;;;;;;;2.00;1.10;;;21.40;99.90;;;;;;10606221;27;20200;-88
2022/07/27 23:57:28;;;;;;;2.03;1.30;;;21.40;99.90;;;;;;10623953;27;20196;-88
